Time;durP1;ratioP1;P1;durP2;ratioP2;P2;SDS_P1;SDS_P2;PMS_P1;PMS_P2;Temp;Humidity;BMP_temperature;BMP_pressure;BME280_temperature;BME280_humidity;BME280_pressure;Samples;Min_cycle;Max_cycle;Signal;HPM_P1;HPM_P2
2023/03/28 00:00:48;;;;;;;;;;;;;;;3.14;98.37;92128.81;5051224;28;19956;-38
2023/03/28 00:03:17;;;;;;;;;;;;;;;3.05;98.22;92146.38;5050396;28;21671;-38
2023/03/28 00:05:43;;;;;;;;;;;;;;;2.88;99.08;92143.31;5051346;28;19921;-38
2023/03/28 00:08:10;;;;;;;;;;;;;;;2.85;98.72;92145.09;5051555;28;20339;-37
2023/03/28 00:10:36;;;;;;;;;;;;;;;2.74;97.17;92142.63;5036694;28;19940;-37
2023/03/28 00:13:01;;;;;;;;;;;;;;;2.73;97.51;92151.34;5031087;28;19994;-37
2023/03/28 00:15:27;;;;;;;;;;;;;;;2.43;98.64;92156.44;5031164;28;19923;-38
2023/03/28 00:17:52;;;;;;;;;;;;;;;2.59;97.07;92153.38;5031103;28;20643;-37
2023/03/28 00:20:18;;;;;;;;;;;;;;;2.45;96.50;92160.09;5030984;28;19917;-37
2023/03/28 00:22:44;;;;;;;;;;;;;;;2.33;96.36;92167.06;5030929;28;19920;-38
2023/03/28 00:25:10;;;;;;;;;;;;;;;2.31;96.25;92166.84;5030849;28;19913;-37
2023/03/28 00:27:35;;;;;;;;;;;;;;;2.25;95.70;92179.84;5031072;28;19913;-37
2023/03/28 00:30:01;;;;;;;;;;;;;;;2.07;96.77;92172.53;5031071;28;19917;-38
2023/03/28 00:32:27;;;;;;;;;;;;;;;1.94;98.03;92167.84;5046067;28;19917;-37
2023/03/28 00:34:52;;;;;;;;;;;;;;;1.89;97.03;92176.09;5046793;28;20396;-38
2023/03/28 00:37:17;;;;;;;;;;;;;;;1.89;96.57;92181.53;5050776;28;19971;-37
2023/03/28 00:39:48;;;;;;;;;;;;;;;1.81;97.20;92188.88;5050522;28;19912;-38
2023/03/28 00:42:17;;;;;;;;;;;;;;;1.75;97.75;92185.53;5050766;28;19917;-38
2023/03/28 00:44:43;;;;;;;;;;;;;;;1.83;96.29;92178.19;5042640;28;20014;-38
2023/03/28 00:47:11;;;;;;;;;;;;;;;1.66;94.94;92183.94;5030363;28;20007;-37
2023/03/28 00:49:36;;;;;;;;;;;;;;;1.64;94.63;92180.28;5030123;28;20003;-37
2023/03/28 00:52:02;;;;;;;;;;;;;;;1.54;95.74;92186.13;5030643;28;20067;-37
2023/03/28 00:54:28;;;;;;;;;;;;;;;1.35;97.18;92198.31;5045642;28;19928;-37
2023/03/28 00:56:54;;;;;;;;;;;;;;;1.45;96.44;92194.69;5045705;28;20445;-37
2023/03/28 00:59:20;;;;;;;;;;;;;;;1.49;94.32;92195.09;5045772;28;20043;-37
2023/03/28 01:01:45;;;;;;;;;;;;;;;1.38;95.00;92217.06;5030158;28;19925;-38
2023/03/28 01:04:11;;;;;;;;;;;;;;;1.41;94.04;92177.19;5030131;28;20016;-37
2023/03/28 01:06:39;;;;;;;;;;;;;;;1.40;93.95;92208.38;5030208;28;19920;-37
2023/03/28 01:09:06;;;;;;;;;;;;;;;1.36;92.47;92216.13;5029989;28;19959;-38
2023/03/28 01:11:31;;;;;;;;;;;;;;;1.30;93.17;92221.63;5045389;28;19920;-39
2023/03/28 01:13:57;;;;;;;;;;;;;;;1.24;92.88;92229.16;5045513;28;19917;-37
2023/03/28 01:16:22;;;;;;;;;;;;;;;1.24;93.38;92239.28;5045167;28;19944;-38
2023/03/28 01:18:50;;;;;;;;;;;;;;;1.22;92.86;92242.53;5030117;28;19920;-37
2023/03/28 01:21:25;;;;;;;;;;;;;;;1.21;92.61;92230.16;5029970;28;19921;-38
2023/03/28 01:24:09;;;;;;;;;;;;;;;1.16;92.57;92239.16;5029739;28;20436;-38
2023/03/28 01:26:40;;;;;;;;;;;;;;;1.17;92.25;92243.34;5029758;28;19913;-38
2023/03/28 01:29:24;;;;;;;;;;;;;;;1.23;91.53;92260.31;5045232;28;19913;-38
2023/03/28 01:31:49;;;;;;;;;;;;;;;1.06;91.88;92284.25;5029398;28;19913;-38
2023/03/28 01:34:29;;;;;;;;;;;;;;;1.02;91.85;92272.25;5040715;28;19920;-38
2023/03/28 01:37:02;;;;;;;;;;;;;;;0.80;92.86;92275.25;5065376;28;19919;-38
2023/03/28 01:39:36;;;;;;;;;;;;;;;0.88;93.16;92284.28;5049664;28;20301;-38
2023/03/28 01:42:07;;;;;;;;;;;;;;;0.95;92.25;92279.00;5049717;28;20037;-38
2023/03/28 01:44:44;;;;;;;;;;;;;;;0.88;91.99;92274.16;5042790;28;19917;-38
2023/03/28 01:47:12;;;;;;;;;;;;;;;0.78;92.64;92273.03;5045101;28;20367;-38
2023/03/28 01:49:40;;;;;;;;;;;;;;;0.74;92.69;92278.78;5044573;28;19917;-38
2023/03/28 01:52:12;;;;;;;;;;;;;;;0.73;91.50;92274.63;5029442;28;19920;-39
2023/03/28 01:54:37;;;;;;;;;;;;;;;0.74;90.71;92283.47;5029704;28;19920;-39
2023/03/28 01:57:21;;;;;;;;;;;;;;;0.76;90.54;92284.44;5029364;28;19917;-39
2023/03/28 01:59:48;;;;;;;;;;;;;;;0.68;91.36;92288.25;5029175;28;20462;-39
2023/03/28 02:02:13;;;;;;;;;;;;;;;0.78;90.82;92305.66;5029669;28;19928;-39
2023/03/28 02:04:38;;;;;;;;;;;;;;;0.69;90.60;92284.31;5029506;28;19913;-39
2023/03/28 02:07:03;;;;;;;;;;;;;;;0.53;91.33;92301.53;5044866;28;19913;-39
2023/03/28 02:09:29;;;;;;;;;;;;;;;0.49;92.87;92306.50;5044740;28;19913;-39
2023/03/28 02:11:55;;;;;;;;;;;;;;;0.41;93.00;92311.06;5044909;28;19944;-39
2023/03/28 02:14:21;;;;;;;;;;;;;;;0.40;91.46;92290.56;5044652;28;19920;-39
2023/03/28 02:16:48;;;;;;;;;;;;;;;0.47;92.11;92285.31;5044453;28;19913;-39
2023/03/28 02:19:14;;;;;;;;;;;;;;;0.46;91.69;92283.09;5044287;28;19976;-39
2023/03/28 02:21:59;;;;;;;;;;;;;;;0.41;91.53;92292.06;5044850;28;20006;-39
2023/03/28 02:24:24;;;;;;;;;;;;;;;0.34;91.29;92295.34;5029434;28;19913;-39
2023/03/28 02:26:50;;;;;;;;;;;;;;;0.48;91.50;92294.16;5045149;28;19978;-39
2023/03/28 02:29:15;;;;;;;;;;;;;;;0.41;91.75;92308.34;5048368;28;19964;-39
2023/03/28 02:31:41;;;;;;;;;;;;;;;0.40;91.02;92313.03;5048461;28;19928;-39
2023/03/28 02:34:07;;;;;;;;;;;;;;;0.36;90.40;92320.00;5042604;28;19913;-39
2023/03/28 02:36:47;;;;;;;;;;;;;;;0.36;90.74;92322.72;5068366;28;20523;-39
2023/03/28 02:39:16;;;;;;;;;;;;;;;0.31;90.85;92318.81;5052942;28;20628;-39
2023/03/28 02:41:44;;;;;;;;;;;;;;;0.41;90.54;92335.50;5040314;28;20150;-39
2023/03/28 02:44:28;;;;;;;;;;;;;;;0.47;90.51;92333.44;5033039;28;19913;-39
2023/03/28 02:47:12;;;;;;;;;;;;;;;0.37;89.65;92351.34;5032836;28;20412;-39
2023/03/28 02:49:56;;;;;;;;;;;;;;;0.23;90.43;92357.88;5032519;28;19913;-39
2023/03/28 02:52:50;;;;;;;;;;;;;;;0.22;89.74;92354.44;5032679;28;20411;-39
2023/03/28 02:55:37;;;;;;;;;;;;;;;0.30;90.04;92362.75;5030441;28;19917;-39
2023/03/28 02:58:20;;;;;;;;;;;;;;;0.20;89.63;92358.88;5047980;28;19917;-39
2023/03/28 03:00:45;;;;;;;;;;;;;;;0.09;89.70;92357.03;5047836;28;19925;-39
2023/03/28 03:03:10;;;;;;;;;;;;;;;0.22;89.25;92343.56;5048157;28;19913;-39
2023/03/28 03:05:36;;;;;;;;;;;;;;;0.14;89.81;92352.78;5032729;28;19944;-39
2023/03/28 03:08:01;;;;;;;;;;;;;;;0.07;90.82;92361.47;5032503;28;19924;-39
2023/03/28 03:10:26;;;;;;;;;;;;;;;0.12;90.20;92364.16;5032284;28;19920;-39
2023/03/28 03:12:52;;;;;;;;;;;;;;;0.09;89.56;92380.72;5032327;28;19913;-39
2023/03/28 03:15:18;;;;;;;;;;;;;;;-0.03;90.80;92375.41;5032148;28;19921;-39
2023/03/28 03:17:44;;;;;;;;;;;;;;;-0.06;91.02;92381.09;5032230;28;19923;-39
2023/03/28 03:20:09;;;;;;;;;;;;;;;-0.09;90.72;92387.53;5032221;28;19917;-39
2023/03/28 03:22:35;;;;;;;;;;;;;;;-0.08;90.85;92384.31;5032197;28;19917;-39
2023/03/28 03:25:05;;;;;;;;;;;;;;;-0.07;90.63;92377.66;5031891;28;19920;-39
2023/03/28 03:27:31;;;;;;;;;;;;;;;-0.17;90.74;92373.78;5032079;28;19920;-39
2023/03/28 03:29:56;;;;;;;;;;;;;;;-0.15;89.98;92379.44;5032213;28;19913;-39
2023/03/28 03:32:21;;;;;;;;;;;;;;;-0.19;90.10;92386.38;5031991;28;19924;-39
2023/03/28 03:34:46;;;;;;;;;;;;;;;-0.17;89.72;92381.19;5047385;28;19912;-39
2023/03/28 03:37:13;;;;;;;;;;;;;;;-0.35;89.37;92390.72;5045044;28;20055;-39
2023/03/28 03:39:38;;;;;;;;;;;;;;;-0.34;89.62;92389.44;5031747;28;20010;-38
2023/03/28 03:42:04;;;;;;;;;;;;;;;-0.38;89.22;92399.09;5031759;28;20437;-38
2023/03/28 03:44:29;;;;;;;;;;;;;;;-0.53;90.18;92410.28;5031987;28;19913;-38
2023/03/28 03:46:56;;;;;;;;;;;;;;;-0.39;90.36;92411.91;5031675;28;19913;-39
2023/03/28 03:49:21;;;;;;;;;;;;;;;-0.29;89.55;92413.09;5031440;28;20408;-39
2023/03/28 03:51:46;;;;;;;;;;;;;;;-0.22;88.15;92401.69;5031628;28;19913;-39
2023/03/28 03:54:12;;;;;;;;;;;;;;;-0.23;87.21;92427.34;5031948;28;19919;-39
2023/03/28 03:56:37;;;;;;;;;;;;;;;-0.32;87.49;92424.19;5031736;28;20363;-39
2023/03/28 03:59:02;;;;;;;;;;;;;;;-0.37;87.65;92430.41;5031688;28;20442;-39
2023/03/28 04:01:28;;;;;;;;;;;;;;;-0.36;87.84;92448.13;5031102;28;19928;-39
2023/03/28 04:03:54;;;;;;;;;;;;;;;-0.28;87.57;92436.25;5031719;28;19936;-39
2023/03/28 04:06:19;;;;;;;;;;;;;;;-0.35;86.73;92436.81;5031547;28;20309;-39
2023/03/28 04:08:45;;;;;;;;;;;;;;;-0.40;87.30;92458.53;5031320;28;19913;-39
2023/03/28 04:11:11;;;;;;;;;;;;;;;-0.44;88.13;92458.78;5031027;28;19914;-39
2023/03/28 04:13:36;;;;;;;;;;;;;;;-0.51;87.84;92456.63;5031549;28;19913;-39
2023/03/28 04:16:01;;;;;;;;;;;;;;;-0.49;87.94;92477.78;5031091;28;19923;-39
2023/03/28 04:18:28;;;;;;;;;;;;;;;-0.55;88.16;92472.41;5031453;28;19913;-39
2023/03/28 04:20:54;;;;;;;;;;;;;;;-0.57;87.91;92480.31;5031245;28;19944;-39
2023/03/28 04:23:24;;;;;;;;;;;;;;;-0.56;87.43;92484.47;5031157;28;19917;-39
2023/03/28 04:25:54;;;;;;;;;;;;;;;-0.73;89.23;92481.13;5031221;28;19917;-39
2023/03/28 04:28:19;;;;;;;;;;;;;;;-0.63;89.01;92487.75;5030843;28;19917;-39
2023/03/28 04:30:44;;;;;;;;;;;;;;;-0.51;88.03;92493.81;5030477;28;19913;-39
2023/03/28 04:33:10;;;;;;;;;;;;;;;-0.45;87.68;92503.41;5032650;28;19924;-38
2023/03/28 04:35:35;;;;;;;;;;;;;;;-0.47;88.10;92511.31;5050848;28;19912;-39
2023/03/28 04:38:01;;;;;;;;;;;;;;;-0.41;87.55;92517.44;5050650;28;20391;-39
2023/03/28 04:40:28;;;;;;;;;;;;;;;-0.45;87.00;92505.38;5050763;28;20012;-39
2023/03/28 04:42:53;;;;;;;;;;;;;;;-0.46;87.43;92517.47;5050825;28;19917;-39
2023/03/28 04:45:18;;;;;;;;;;;;;;;-0.55;87.83;92523.91;5037281;28;19917;-39
2023/03/28 04:47:44;;;;;;;;;;;;;;;-0.45;86.92;92518.94;5030765;28;19917;-39
2023/03/28 04:50:11;;;;;;;;;;;;;;;-0.50;86.30;92533.25;5029657;28;19921;-39
2023/03/28 04:52:37;;;;;;;;;;;;;;;-0.58;87.24;92532.28;5030714;28;20364;-39
2023/03/28 04:55:03;;;;;;;;;;;;;;;-0.39;85.95;92538.63;5030217;28;19956;-39
2023/03/28 04:57:28;;;;;;;;;;;;;;;-0.32;86.16;92540.81;5030292;28;19959;-39
2023/03/28 04:59:54;;;;;;;;;;;;;;;-0.34;84.84;92548.69;5030156;28;19956;-39
2023/03/28 05:02:20;;;;;;;;;;;;;;;-0.36;85.35;92554.63;5030153;28;19982;-39
2023/03/28 05:04:46;;;;;;;;;;;;;;;-0.29;84.05;92551.41;5030457;28;19925;-39
2023/03/28 05:07:11;;;;;;;;;;;;;;;-0.25;83.25;92562.72;5030084;28;19920;-39
2023/03/28 05:09:36;;;;;;;;;;;;;;;-0.30;83.79;92555.34;5030318;28;19919;-39
2023/03/28 05:12:02;;;;;;;;;;;;;;;-0.25;83.40;92551.88;5030328;28;20312;-39
2023/03/28 05:14:27;;;;;;;;;;;;;;;-0.31;83.85;92562.03;5030325;28;20359;-39
2023/03/28 05:16:52;;;;;;;;;;;;;;;-0.25;83.32;92560.00;5030161;28;19913;-39
2023/03/28 05:19:19;;;;;;;;;;;;;;;-0.15;82.17;92569.31;5029896;28;20000;-39
2023/03/28 05:21:45;;;;;;;;;;;;;;;0.03;82.61;92569.97;5030092;28;19978;-39
2023/03/28 05:24:10;;;;;;;;;;;;;;;0.10;81.86;92575.59;5030187;28;19940;-39
2023/03/28 05:26:35;;;;;;;;;;;;;;;0.21;81.05;92555.78;5029785;28;19913;-39
2023/03/28 05:29:00;;;;;;;;;;;;;;;0.24;nan;92549.38;5029912;28;19971;-39
2023/03/28 05:31:29;;;;;;;;;;;;;;;0.17;80.92;92560.75;5029744;28;19987;-39
2023/03/28 05:33:54;;;;;;;;;;;;;;;0.53;79.33;92565.69;5037990;28;19917;-39
2023/03/28 05:36:19;;;;;;;;;;;;;;;0.23;80.06;92573.06;5049576;28;20324;-39
2023/03/28 05:38:45;;;;;;;;;;;;;;;0.41;79.82;92558.13;5049895;28;19921;-39
2023/03/28 05:41:10;;;;;;;;;;;;;;;0.37;79.95;92571.25;5049316;28;19923;-39
2023/03/28 05:43:35;;;;;;;;;;;;;;;0.50;78.64;92576.81;5049626;28;19919;-39
2023/03/28 05:46:01;;;;;;;;;;;;;;;0.52;78.95;92577.78;5030998;28;19917;-39
2023/03/28 05:48:26;;;;;;;;;;;;;;;0.41;79.52;92593.44;5029514;28;19936;-39
2023/03/28 05:50:51;;;;;;;;;;;;;;;0.25;80.08;92591.56;5029223;28;19917;-39
2023/03/28 05:53:16;;;;;;;;;;;;;;;0.46;79.32;92584.50;5029776;28;19913;-38
2023/03/28 05:55:42;;;;;;;;;;;;;;;0.90;77.36;92591.56;5038235;28;20289;-39
2023/03/28 05:58:07;;;;;;;;;;;;;;;0.80;77.46;92587.69;5049248;28;19913;-39
2023/03/28 06:00:33;;;;;;;;;;;;;;;1.22;75.94;92582.34;5048966;28;19921;-39
2023/03/28 06:02:58;;;;;;;;;;;;;;;1.52;74.89;92577.59;5049524;28;20510;-38
2023/03/28 06:05:24;;;;;;;;;;;;;;;1.38;73.95;92576.03;5049266;28;20396;-39
2023/03/28 06:07:49;;;;;;;;;;;;;;;1.21;75.18;92588.31;5049515;28;19913;-38
2023/03/28 06:10:15;;;;;;;;;;;;;;;1.94;73.16;92589.72;5037687;28;20399;-38
2023/03/28 06:12:40;;;;;;;;;;;;;;;2.47;68.77;92577.09;5029483;28;20177;-39
2023/03/28 06:15:06;;;;;;;;;;;;;;;2.24;70.49;92597.75;5029420;28;20369;-38
2023/03/28 06:17:32;;;;;;;;;;;;;;;2.63;69.31;92586.28;5029465;28;19917;-39
2023/03/28 06:19:57;;;;;;;;;;;;;;;2.92;67.16;92594.25;5029538;28;20465;-39
2023/03/28 06:22:22;;;;;;;;;;;;;;;2.70;67.97;92605.50;5029075;28;19913;-39
2023/03/28 06:24:48;;;;;;;;;;;;;;;2.21;69.98;92604.19;5029161;28;20008;-38
2023/03/28 06:27:13;;;;;;;;;;;;;;;2.09;70.65;92592.00;5028839;28;19917;-39
2023/03/28 06:29:38;;;;;;;;;;;;;;;2.59;69.06;92596.75;5029112;28;20082;-39
2023/03/28 06:32:04;;;;;;;;;;;;;;;2.79;66.88;92594.22;5029048;28;19925;-39
2023/03/28 06:34:29;;;;;;;;;;;;;;;3.22;66.80;92585.81;5042055;28;19913;-38
2023/03/28 06:36:54;;;;;;;;;;;;;;;3.36;65.04;92600.19;5049290;28;20684;-39
2023/03/28 06:39:20;;;;;;;;;;;;;;;3.08;65.71;92606.13;5048798;28;20401;-38
2023/03/28 06:41:45;;;;;;;;;;;;;;;3.52;63.94;92597.19;5048717;28;19921;-38
2023/03/28 06:44:10;;;;;;;;;;;;;;;3.29;64.48;92612.47;5045520;28;20011;-39
2023/03/28 06:46:36;;;;;;;;;;;;;;;3.46;64.22;92620.38;5028939;28;20413;-39
2023/03/28 06:49:01;;;;;;;;;;;;;;;2.93;64.08;92624.97;5028722;28;19917;-38
2023/03/28 06:51:26;;;;;;;;;;;;;;;2.78;66.26;92630.91;5028792;28;19918;-38
2023/03/28 06:53:52;;;;;;;;;;;;;;;2.61;66.17;92630.41;5028888;28;19913;-39
2023/03/28 06:56:17;;;;;;;;;;;;;;;3.91;63.27;92633.94;5042801;28;19919;-38
2023/03/28 06:58:42;;;;;;;;;;;;;;;3.59;62.83;92625.84;5048618;28;19912;-38
2023/03/28 07:01:07;;;;;;;;;;;;;;;4.43;60.90;92639.38;5048487;28;19999;-38
2023/03/28 07:03:33;;;;;;;;;;;;;;;3.46;63.11;92637.50;5048732;28;20400;-39
2023/03/28 07:06:02;;;;;;;;;;;;;;;2.87;64.45;92638.69;5048938;28;19960;-39
2023/03/28 07:08:28;;;;;;;;;;;;;;;3.10;63.04;92658.16;5048588;28;19913;-38
2023/03/28 07:10:53;;;;;;;;;;;;;;;2.82;64.60;92660.56;5031768;28;19920;-38
2023/03/28 07:13:18;;;;;;;;;;;;;;;3.02;64.30;92662.75;5030250;28;19920;-38
2023/03/28 07:15:43;;;;;;;;;;;;;;;3.56;62.36;92659.63;5032584;28;19917;-38
2023/03/28 07:18:09;;;;;;;;;;;;;;;4.44;61.41;92638.13;5032096;28;20380;-39
2023/03/28 07:20:43;;;;;;;;;;;;;;;5.70;56.52;92652.81;5031999;28;19917;-39
2023/03/28 07:23:09;;;;;;;;;;;;;;;5.61;55.98;92658.78;5031822;28;19972;-39
2023/03/28 07:25:34;;;;;;;;;;;;;;;5.76;54.05;92653.41;5032080;28;20025;-39
2023/03/28 07:28:00;;;;;;;;;;;;;;;5.06;54.76;92665.59;5032049;28;19960;-38
2023/03/28 07:30:25;;;;;;;;;;;;;;;5.48;54.89;92660.88;5031876;28;19917;-39
2023/03/28 07:32:51;;;;;;;;;;;;;;;5.01;55.19;92669.16;5031741;28;19975;-38
2023/03/28 07:35:16;;;;;;;;;;;;;;;3.91;58.21;92653.06;5051291;28;20537;-38
2023/03/28 07:37:41;;;;;;;;;;;;;;;4.48;57.82;92639.22;5051670;28;19916;-39
2023/03/28 07:40:08;;;;;;;;;;;;;;;3.97;57.95;92656.41;5051809;28;19952;-38
2023/03/28 07:42:33;;;;;;;;;;;;;;;4.09;57.22;92661.16;5051592;28;20415;-39
2023/03/28 07:44:58;;;;;;;;;;;;;;;4.30;58.56;92674.91;5041609;28;19913;-38
2023/03/28 07:47:23;;;;;;;;;;;;;;;5.26;56.35;92659.41;5031486;28;20539;-39
2023/03/28 07:49:50;;;;;;;;;;;;;;;6.25;53.61;92658.88;5031861;28;19917;-39
2023/03/28 07:52:15;;;;;;;;;;;;;;;6.77;52.38;92665.91;5031452;28;19923;-38
2023/03/28 07:54:40;;;;;;;;;;;;;;;6.66;50.65;92671.69;5031655;28;19917;-38
2023/03/28 07:57:06;;;;;;;;;;;;;;;7.57;49.29;92683.66;5051596;28;19913;-38
2023/03/28 07:59:31;;;;;;;;;;;;;;;7.43;47.33;92696.09;5051349;28;20305;-39
2023/03/28 08:01:56;;;;;;;;;;;;;;;6.73;48.48;92673.75;5051067;28;19921;-39
2023/03/28 08:04:22;;;;;;;;;;;;;;;6.45;51.43;92673.78;5051379;28;20355;-39
2023/03/28 08:06:47;;;;;;;;;;;;;;;7.19;49.52;92691.81;5051255;28;20551;-39
2023/03/28 08:09:14;;;;;;;;;;;;;;;6.36;50.80;92677.03;5047690;28;19920;-39
2023/03/28 08:11:39;;;;;;;;;;;;;;;6.65;51.01;92676.44;5031434;28;20297;-39
2023/03/28 08:14:08;;;;;;;;;;;;;;;6.53;50.40;92693.75;5031330;28;19917;-39
2023/03/28 08:16:33;;;;;;;;;;;;;;;7.14;49.36;92683.75;5031051;28;20423;-39
2023/03/28 08:18:58;;;;;;;;;;;;;;;7.33;47.60;92706.88;5030962;28;19917;-39
2023/03/28 08:21:24;;;;;;;;;;;;;;;7.20;48.46;92717.25;5030763;28;20631;-39
2023/03/28 08:23:50;;;;;;;;;;;;;;;6.28;50.28;92709.88;5030974;28;19913;-39
2023/03/28 08:26:15;;;;;;;;;;;;;;;5.90;52.60;92711.63;5031230;28;19917;-39
2023/03/28 08:28:41;;;;;;;;;;;;;;;5.67;51.75;92708.69;5030955;28;19917;-39
2023/03/28 08:31:09;;;;;;;;;;;;;;;6.18;52.46;92713.66;5030853;28;19974;-38
2023/03/28 08:33:35;;;;;;;;;;;;;;;6.01;52.29;92712.09;5036053;28;20413;-38
2023/03/28 08:36:01;;;;;;;;;;;;;;;5.15;53.89;92708.91;5050966;28;19920;-38
2023/03/28 08:38:26;;;;;;;;;;;;;;;4.93;54.77;92706.66;5050460;28;19921;-39
2023/03/28 08:40:57;;;;;;;;;;;;;;;4.60;54.54;92706.09;5050740;28;19921;-38
2023/03/28 08:43:26;;;;;;;;;;;;;;;4.24;55.72;92720.72;5066133;28;19913;-38
2023/03/28 08:45:54;;;;;;;;;;;;;;;3.99;56.50;92722.91;5048626;28;20517;-39
2023/03/28 08:48:38;;;;;;;;;;;;;;;3.92;57.95;92739.19;5030410;28;20385;-39
2023/03/28 08:51:05;;;;;;;;;;;;;;;4.09;57.19;92742.38;5030043;28;19917;-39
2023/03/28 08:53:34;;;;;;;;;;;;;;;3.86;57.53;92752.94;5045644;28;19920;-39
2023/03/28 08:56:00;;;;;;;;;;;;;;;3.73;58.22;92750.91;5056776;28;19913;-38
2023/03/28 08:58:27;;;;;;;;;;;;;;;4.24;58.55;92745.31;5065487;28;19969;-39
2023/03/28 09:00:52;;;;;;;;;;;;;;;4.68;56.34;92744.44;5049799;28;19932;-39
2023/03/28 09:03:19;;;;;;;;;;;;;;;4.68;56.84;92749.91;5050224;28;19920;-39
2023/03/28 09:05:59;;;;;;;;;;;;;;;5.03;54.40;92740.50;5065392;28;20008;-38
2023/03/28 09:08:30;;;;;;;;;;;;;;;5.15;55.02;92753.44;5065379;28;19952;-39
2023/03/28 09:10:55;;;;;;;;;;;;;;;5.04;55.25;92744.72;5050117;28;19917;-39
2023/03/28 09:13:24;;;;;;;;;;;;;;;4.61;55.78;92764.97;5049723;28;19928;-38
2023/03/28 09:15:55;;;;;;;;;;;;;;;4.07;57.58;92772.22;5034336;28;19921;-39
2023/03/28 09:18:33;;;;;;;;;;;;;;;4.00;58.20;92789.19;5030022;28;19913;-39
2023/03/28 09:21:03;;;;;;;;;;;;;;;3.72;59.69;92787.69;5045167;28;20381;-39
2023/03/28 09:23:35;;;;;;;;;;;;;;;3.93;57.68;92784.34;5045501;28;20014;-38
2023/03/28 09:26:01;;;;;;;;;;;;;;;3.91;58.18;92782.16;5030228;28;20320;-38
2023/03/28 09:28:32;;;;;;;;;;;;;;;4.10;57.89;92791.00;5045175;28;19913;-39
2023/03/28 09:30:58;;;;;;;;;;;;;;;4.97;58.80;92767.25;5029448;28;19913;-39
2023/03/28 09:33:31;;;;;;;;;;;;;;;6.03;54.45;92782.78;5033448;28;19919;-39
2023/03/28 09:35:56;;;;;;;;;;;;;;;6.01;53.27;92758.66;5064650;28;19919;-38
2023/03/28 09:38:23;;;;;;;;;;;;;;;6.67;51.51;92785.63;5049879;28;19921;-39
2023/03/28 09:40:49;;;;;;;;;;;;;;;6.96;50.85;92791.81;5065055;28;19913;-39
2023/03/28 09:43:14;;;;;;;;;;;;;;;7.01;50.58;92799.91;5065079;28;20384;-38
2023/03/28 09:45:42;;;;;;;;;;;;;;;8.16;48.34;92800.44;5033975;28;19919;-39
2023/03/28 09:48:10;;;;;;;;;;;;;;;8.88;48.25;92795.28;5029628;28;19916;-39
2023/03/28 09:50:35;;;;;;;;;;;;;;;9.07;44.64;92768.06;5044699;28;19917;-39
2023/03/28 09:53:01;;;;;;;;;;;;;;;7.79;47.75;92792.13;5029703;28;19920;-39
2023/03/28 09:55:27;;;;;;;;;;;;;;;8.17;45.98;92795.66;5029417;28;19944;-39
2023/03/28 09:58:00;;;;;;;;;;;;;;;8.05;46.26;92811.06;5029403;28;19917;-39
2023/03/28 10:00:25;;;;;;;;;;;;;;;7.11;46.97;92813.84;5029402;28;20412;-39
2023/03/28 10:02:51;;;;;;;;;;;;;;;7.45;47.87;92806.16;5029299;28;20176;-39
2023/03/28 10:05:33;;;;;;;;;;;;;;;9.16;48.29;92806.03;5044891;28;19924;-39
2023/03/28 10:08:01;;;;;;;;;;;;;;;9.56;43.96;92805.38;5029329;28;19913;-39
2023/03/28 10:10:27;;;;;;;;;;;;;;;9.85;45.73;92787.22;5028941;28;19913;-39
2023/03/28 10:12:56;;;;;;;;;;;;;;;9.93;43.19;92796.91;5029523;28;19917;-39
2023/03/28 10:15:32;;;;;;;;;;;;;;;9.21;44.75;92809.16;5029340;28;19940;-39
2023/03/28 10:18:01;;;;;;;;;;;;;;;9.11;43.86;92809.00;5029436;28;19970;-39
2023/03/28 10:20:26;;;;;;;;;;;;;;;7.87;45.68;92809.38;5029343;28;19917;-39
2023/03/28 10:22:53;;;;;;;;;;;;;;;6.81;49.41;92820.66;5029048;28;20662;-39
2023/03/28 10:25:19;;;;;;;;;;;;;;;7.89;48.92;92813.03;5044483;28;19925;-39
2023/03/28 10:27:45;;;;;;;;;;;;;;;9.01;45.62;92810.84;5029253;28;19913;-39
2023/03/28 10:30:10;;;;;;;;;;;;;;;9.99;43.10;92813.25;5044320;28;20062;-39
2023/03/28 10:32:35;;;;;;;;;;;;;;;9.48;42.73;92818.44;5029002;28;20014;-39
2023/03/28 10:35:22;;;;;;;;;;;;;;;10.69;41.83;92815.72;5045826;28;19913;-39
2023/03/28 10:37:48;;;;;;;;;;;;;;;10.20;40.77;92818.50;5048861;28;19924;-39
2023/03/28 10:40:17;;;;;;;;;;;;;;;9.92;42.48;92802.97;5049021;28;19913;-39
2023/03/28 10:42:44;;;;;;;;;;;;;;;8.97;43.00;92813.25;5049217;28;19925;-39
2023/03/28 10:45:17;;;;;;;;;;;;;;;9.33;43.01;92799.97;5037131;28;20004;-39
2023/03/28 10:47:43;;;;;;;;;;;;;;;8.56;42.73;92814.41;5029303;28;20317;-39
2023/03/28 10:50:19;;;;;;;;;;;;;;;7.54;45.27;92817.34;5048223;28;19913;-39
2023/03/28 10:52:47;;;;;;;;;;;;;;;6.98;45.90;92822.94;5048034;28;19940;-40
2023/03/28 10:55:13;;;;;;;;;;;;;;;6.41;49.65;92818.72;5052813;28;19923;-39
2023/03/28 10:57:50;;;;;;;;;;;;;;;6.08;49.56;92817.53;5068241;28;19956;-39
2023/03/28 11:00:21;;;;;;;;;;;;;;;5.76;47.57;92825.97;5052483;28;19948;-39
2023/03/28 11:02:49;;;;;;;;;;;;;;;5.96;48.90;92827.28;5068148;28;20008;-39
2023/03/28 11:05:24;;;;;;;;;;;;;;;6.00;48.72;92836.63;5067638;28;19947;-39
2023/03/28 11:07:56;;;;;;;;;;;;;;;5.89;50.96;92825.94;5056333;28;19975;-39
2023/03/28 11:10:22;;;;;;;;;;;;;;;6.15;47.94;92827.81;5032585;28;19913;-40
2023/03/28 11:12:53;;;;;;;;;;;;;;;5.93;48.22;92823.59;5032716;28;19996;-39
2023/03/28 11:15:24;;;;;;;;;;;;;;;6.29;47.79;92814.78;5047704;28;20604;-39
2023/03/28 11:18:02;;;;;;;;;;;;;;;7.27;45.46;92829.88;5047995;28;20312;-39
2023/03/28 11:20:36;;;;;;;;;;;;;;;7.19;46.49;92820.13;5032435;28;19919;-39
2023/03/28 11:23:04;;;;;;;;;;;;;;;7.56;45.57;92814.78;5032268;28;20372;-39
2023/03/28 11:25:36;;;;;;;;;;;;;;;7.17;46.95;92812.41;5032420;28;19920;-39
2023/03/28 11:28:04;;;;;;;;;;;;;;;7.21;47.50;92806.59;5032237;28;20373;-39
2023/03/28 11:30:33;;;;;;;;;;;;;;;8.06;44.27;92816.00;5032316;28;19919;-39
2023/03/28 11:33:03;;;;;;;;;;;;;;;7.34;44.05;92823.66;5031903;28;19917;-39
2023/03/28 11:35:30;;;;;;;;;;;;;;;6.61;46.71;92826.91;5067561;28;19917;-39
2023/03/28 11:37:55;;;;;;;;;;;;;;;6.22;48.08;92807.97;5067567;28;19917;-39
2023/03/28 11:40:22;;;;;;;;;;;;;;;6.55;49.68;92823.59;5051923;28;19926;-39
2023/03/28 11:42:49;;;;;;;;;;;;;;;7.11;47.67;92820.09;5051950;28;20375;-39
2023/03/28 11:45:20;;;;;;;;;;;;;;;6.43;48.70;92827.16;5039309;28;20008;-39
2023/03/28 11:48:04;;;;;;;;;;;;;;;5.85;49.88;92838.50;5047422;28;19921;-39
2023/03/28 11:50:50;;;;;;;;;;;;;;;6.36;52.51;92845.00;5031908;28;19970;-39
2023/03/28 11:53:17;;;;;;;;;;;;;;;6.46;47.29;92821.31;5027480;28;19917;-39
2023/03/28 11:55:47;;;;;;;;;;;;;;;5.73;49.05;92838.00;5055604;28;19955;-39
2023/03/28 11:58:16;;;;;;;;;;;;;;;6.46;48.09;92837.78;5051266;28;19917;-39
2023/03/28 12:00:47;;;;;;;;;;;;;;;6.29;48.49;92845.69;5066403;28;20416;-39
2023/03/28 12:03:16;;;;;;;;;;;;;;;6.49;47.09;92849.69;5067010;28;20316;-39
2023/03/28 12:05:45;;;;;;;;;;;;;;;6.05;48.37;92860.44;5051090;28;19913;-39
2023/03/28 12:08:12;;;;;;;;;;;;;;;6.33;48.07;92850.81;5066636;28;19913;-39
2023/03/28 12:10:38;;;;;;;;;;;;;;;6.10;48.23;92843.16;5051650;28;20080;-39
2023/03/28 12:13:16;;;;;;;;;;;;;;;5.61;48.70;92855.94;5046427;28;20431;-39
2023/03/28 12:15:51;;;;;;;;;;;;;;;5.78;48.68;92855.59;5031425;28;19913;-39
2023/03/28 12:18:54;;;;;;;;;;;;;;;5.12;49.96;92860.44;5031412;28;19975;-39
2023/03/28 12:21:24;;;;;;;;;;;;;;;5.17;50.87;92863.09;5008523;28;20368;-39
2023/03/28 12:24:05;;;;;;;;;;;;;;;5.19;50.26;92866.03;5026397;28;20382;-39
2023/03/28 12:26:41;;;;;;;;;;;;;;;5.17;48.99;92859.59;5030855;28;20348;-39
2023/03/28 12:29:14;;;;;;;;;;;;;;;5.04;48.96;92867.81;5011389;28;20437;-39
2023/03/28 12:31:42;;;;;;;;;;;;;;;4.92;49.70;92858.34;5019161;28;20414;-39
2023/03/28 12:34:11;;;;;;;;;;;;;;;4.80;50.84;92846.16;5040607;28;20312;-40
2023/03/28 12:37:03;;;;;;;;;;;;;;;5.03;48.85;92830.78;5050670;28;20412;-39
2023/03/28 12:39:39;;;;;;;;;;;;;;;5.52;47.95;92847.44;5050334;28;19912;-39
2023/03/28 12:42:05;;;;;;;;;;;;;;;5.64;47.90;92852.13;5065903;28;20400;-39
2023/03/28 12:44:39;;;;;;;;;;;;;;;5.44;47.13;92854.81;5044300;28;19956;-39
2023/03/28 12:47:06;;;;;;;;;;;;;;;5.16;47.23;92871.81;5030768;28;20000;-39
2023/03/28 12:49:39;;;;;;;;;;;;;;;5.05;48.72;92855.59;5030550;28;20479;-39
2023/03/28 12:52:05;;;;;;;;;;;;;;;5.21;47.91;92868.97;5046145;28;20319;-39
2023/03/28 12:54:31;;;;;;;;;;;;;;;5.22;46.62;92853.28;5046165;28;19913;-39
2023/03/28 12:57:06;;;;;;;;;;;;;;;5.48;46.63;92864.19;5064680;28;19956;-39
2023/03/28 12:59:46;;;;;;;;;;;;;;;5.65;45.12;92867.28;5050576;28;19963;-39